1994 WILDA (1994291N12170)


On this page: IBTrACS data - Map and Plots - Positions - Intensities - Original source data

Summary

Start Oct 18
End Nov 2
Basins EP
WP
LMI 125 kt
Sources jtwc_wp
tokyo
cma
hko
In WMO? Yes
Previous storm 1994 TERESA (WP)
Previous in basin 1994 TERESA (WP)
Concurrent storms 1994 VERNE (WP)
1994 TERESA (WP)
1994 WILDA (WP)
1994 NONA (EP)
1994 YURI (EP)
1994 ZELDA (WP)
1994 MISSING (NI)
1994 FLORENCE (NA)
Next in basin 1994 YURI (EP)
Next storm 1994 NONA (EP)

top of page IBTrACS Data: File Access

top of page HURSAT Data: File Access

Image of storm

top of page Plots:

Map of storm track will not appear if FTP is down
Time series of cyclone Maximum Sustained Wind will not appear if FTP is down
Time series of cyclone Minimum Central Pressure will not appear if FTP is down

top of page Track Data:Position

jtwc_wp tokyo cma hko
Date Lat Lon Lat Lon Lat Lon Lat Lon
1994-10-18 00:00:00 12.0 170.0
1994-10-18 06:00:00 12.5 169.0
1994-10-18 12:00:00 12.9 168.1
1994-10-18 18:00:00 13.2 167.1
1994-10-19 00:00:00 13.4 166.2
1994-10-19 06:00:00 13.6 165.3
1994-10-19 12:00:00 13.7 164.4
1994-10-19 18:00:00 13.8 163.6 13.7 164.3 13.4 164.0
1994-10-20 00:00:00 13.8 162.9 13.4 162.9 13.5 163.5 13.4 163.3
1994-10-20 06:00:00 13.9 162.2 13.5 162.5 13.5 162.8 13.4 162.6
1994-10-20 12:00:00 13.9 161.5 13.6 161.8 13.7 162.1 13.4 161.9
1994-10-20 18:00:00 14.0 160.8 13.8 161.2 14.0 161.1 13.6 161.1
1994-10-21 00:00:00 14.1 160.1 14.0 160.5 14.1 160.4 13.9 160.3
1994-10-21 06:00:00 14.3 159.5 14.3 159.8 14.3 159.7 14.2 159.6
1994-10-21 12:00:00 14.6 158.9 14.7 159.0 14.6 159.0 14.6 158.9
1994-10-21 18:00:00 14.9 158.1 15.0 158.3 15.0 158.3 15.0 158.2
1994-10-22 00:00:00 15.3 157.3 15.5 157.5 15.5 157.6 15.4 157.5
1994-10-22 06:00:00 15.7 156.4 15.9 156.7 15.8 156.7 15.8 156.7
1994-10-22 12:00:00 16.1 155.3 16.2 155.5 16.2 155.5 16.2 155.6
1994-10-22 18:00:00 16.4 154.2 16.5 154.4 16.5 154.4 16.5 154.4
1994-10-23 00:00:00 16.6 153.0 16.8 153.1 16.9 153.1 16.8 153.2
1994-10-23 06:00:00 16.7 151.8 16.8 152.0 16.9 151.9 17.0 152.0
1994-10-23 12:00:00 16.6 150.7 16.7 150.9 16.8 151.0 16.9 150.9
1994-10-23 18:00:00 16.4 149.7 16.6 149.8 16.7 149.8 16.6 149.9
1994-10-24 00:00:00 16.2 148.8 16.2 148.9 16.2 148.9 16.3 149.0
jtwc_wp tokyo cma hko
1994-10-24 06:00:00 15.9 148.1 16.0 148.2 16.1 148.2 15.9 148.2
1994-10-24 12:00:00 15.7 147.6 15.8 147.6 15.8 147.6 15.7 147.7
1994-10-24 18:00:00 15.6 147.3 15.6 147.3 15.6 147.3 15.5 147.3
1994-10-25 00:00:00 15.6 147.1 15.7 147.2 15.7 147.2 15.7 147.2
1994-10-25 06:00:00 15.8 147.2 15.9 147.2 15.8 147.3 15.9 147.3
1994-10-25 12:00:00 16.1 147.5 16.1 147.4 16.1 147.4 16.2 147.5
1994-10-25 18:00:00 16.6 147.9 16.5 147.7 16.5 147.7 16.7 147.9
1994-10-26 00:00:00 17.2 148.4 17.2 148.3 17.3 148.3 17.3 148.4
1994-10-26 06:00:00 17.9 148.9 18.1 149.0 18.2 149.0 18.0 148.9
1994-10-26 12:00:00 18.6 149.4 18.9 149.4 18.9 149.4 18.8 149.5
1994-10-26 18:00:00 19.3 149.8 19.6 149.8 19.7 149.7 19.6 150.0
1994-10-27 00:00:00 19.9 150.2 20.1 150.3 20.1 150.1 20.1 150.4
1994-10-27 06:00:00 20.5 150.6 20.5 150.7 20.6 150.6 20.5 150.7
1994-10-27 12:00:00 21.1 151.0 20.9 151.1 20.9 151.0 21.0 151.0
1994-10-27 18:00:00 21.6 151.3 21.5 151.4 21.6 151.2 21.5 151.3
1994-10-28 00:00:00 22.2 151.5 22.4 151.7 22.4 151.6 22.3 151.5
1994-10-28 06:00:00 22.9 151.5 23.0 151.5 22.9 151.5 23.0 151.5
1994-10-28 12:00:00 23.6 151.4 23.8 151.2 23.7 151.3 23.6 151.5
1994-10-28 18:00:00 24.2 151.2 24.2 151.2 24.2 151.2 24.2 151.3
1994-10-29 00:00:00 24.7 151.0 24.8 151.2 24.8 151.2 24.8 151.1
1994-10-29 06:00:00 25.1 150.7 25.3 150.9 25.3 150.9 25.2 150.8
1994-10-29 12:00:00 25.5 150.3 25.5 150.4 25.6 150.4 25.6 150.4
1994-10-29 18:00:00 25.9 150.0 26.0 150.0 26.1 149.9 26.0 150.0
1994-10-30 00:00:00 26.4 149.9 26.3 149.9 26.4 149.9 26.4 149.9
jtwc_wp tokyo cma hko
1994-10-30 06:00:00 27.0 150.0 26.9 150.0 26.9 150.0 27.0 150.0
1994-10-30 12:00:00 27.8 150.2 27.6 150.2 27.6 150.3 27.6 150.2
1994-10-30 18:00:00 28.9 150.7 29.0 150.6 28.9 150.6 28.8 150.7
1994-10-31 00:00:00 30.3 151.5 30.8 151.4 30.8 151.3 30.4 151.4
1994-10-31 06:00:00 32.0 152.8 32.1 152.7 32.3 152.6 32.2 152.7
1994-10-31 12:00:00 33.8 154.8 33.6 154.9 33.9 155.0 34.2 155.1
1994-10-31 18:00:00 35.6 157.7 35.6 158.0 36.0 157.3
1994-11-01 00:00:00 37.4 161.5 38.5 162.0 38.6 162.1
1994-11-01 06:00:00 39.2 165.3 40.5 167.5 40.0 166.0
1994-11-01 12:00:00 40.9 169.3 42.0 173.0
1994-11-01 18:00:00 42.5 173.4 45.0 178.0
1994-11-02 00:00:00 48.5 185.5

top of pageTrack Data:Intensity

jtwc_wp tokyo cma hko
Date Wind Pres Wind Pres Wind Pres Wind Pres
1994-10-18 00:00:00 15.
1994-10-18 06:00:00 15.
1994-10-18 12:00:00 15.
1994-10-18 18:00:00 20.
1994-10-19 00:00:00 20.
1994-10-19 06:00:00 20.
1994-10-19 12:00:00 25.
1994-10-19 18:00:00 25. 23. 1004. 25. 1004.
1994-10-20 00:00:00 30. 1004. 23. 1004. 25. 1004.
1994-10-20 06:00:00 30. 1002. 29. 998. 25. 1004.
1994-10-20 12:00:00 35. 35. 998. 29. 998. 30. 1000.
1994-10-20 18:00:00 40. 35. 996. 29. 998. 35. 998.
1994-10-21 00:00:00 40. 40. 994. 39. 995. 40. 994.
1994-10-21 06:00:00 45. 40. 992. 39. 995. 45. 990.
1994-10-21 12:00:00 50. 45. 990. 49. 985. 50. 985.
1994-10-21 18:00:00 55. 50. 985. 49. 985. 50. 985.
1994-10-22 00:00:00 65. 55. 980. 49. 985. 55. 980.
1994-10-22 06:00:00 75. 65. 970. 58. 980. 60. 975.
1994-10-22 12:00:00 85. 75. 960. 68. 970. 65. 970.
1994-10-22 18:00:00 95. 80. 955. 68. 970. 70. 965.
1994-10-23 00:00:00 105. 80. 955. 78. 960. 75. 960.
1994-10-23 06:00:00 115. 80. 950. 78. 960. 75. 960.
1994-10-23 12:00:00 120. 85. 945. 87. 955. 80. 955.
1994-10-23 18:00:00 125. 85. 940. 87. 955. 80. 955.
1994-10-24 00:00:00 125. 90. 935. 87. 955. 85. 950.
jtwc_wp tokyo cma hko
1994-10-24 06:00:00 125. 90. 935. 87. 950. 85. 950.
1994-10-24 12:00:00 120. 90. 935. 87. 950. 85. 950.
1994-10-24 18:00:00 115. 85. 940. 87. 950. 90. 945.
1994-10-25 00:00:00 115. 85. 940. 87. 950. 90. 945.
1994-10-25 06:00:00 115. 85. 940. 87. 950. 85. 950.
1994-10-25 12:00:00 110. 85. 945. 87. 950. 80. 955.
1994-10-25 18:00:00 110. 80. 950. 87. 950. 75. 960.
1994-10-26 00:00:00 110. 75. 955. 78. 960. 75. 960.
1994-10-26 06:00:00 105. 75. 960. 78. 960. 75. 960.
1994-10-26 12:00:00 105. 75. 960. 78. 960. 75. 960.
1994-10-26 18:00:00 105. 75. 960. 78. 960. 75. 960.
1994-10-27 00:00:00 100. 75. 960. 78. 960. 75. 960.
1994-10-27 06:00:00 100. 75. 960. 78. 960. 75. 960.
1994-10-27 12:00:00 100. 75. 960. 78. 960. 75. 960.
1994-10-27 18:00:00 100. 75. 960. 78. 960. 75. 960.
1994-10-28 00:00:00 95. 75. 960. 78. 960. 75. 960.
1994-10-28 06:00:00 95. 75. 960. 78. 960. 75. 960.
1994-10-28 12:00:00 95. 75. 960. 78. 960. 75. 960.
1994-10-28 18:00:00 90. 75. 960. 78. 960. 75. 960.
1994-10-29 00:00:00 90. 75. 960. 87. 950. 75. 960.
1994-10-29 06:00:00 90. 75. 960. 87. 950. 75. 960.
1994-10-29 12:00:00 90. 75. 960. 87. 950. 75. 960.
1994-10-29 18:00:00 85. 75. 960. 87. 950. 75. 960.
1994-10-30 00:00:00 85. 75. 960. 87. 950. 70. 965.
jtwc_wp tokyo cma hko
1994-10-30 06:00:00 85. 70. 965. 78. 960. 70. 965.
1994-10-30 12:00:00 80. 65. 970. 78. 960. 70. 965.
1994-10-30 18:00:00 75. 60. 975. 68. 970. 65. 970.
1994-10-31 00:00:00 70. 55. 980. 68. 970. 65. 970.
1994-10-31 06:00:00 65. 55. 980. 58. 980. 60. 985.
1994-10-31 12:00:00 60. 55. 980. 58. 980. 60. 985.
1994-10-31 18:00:00 55. 50. 985. 49. 985.
1994-11-01 00:00:00 50. 50. 990. 39. 990.
1994-11-01 06:00:00 45. 996. 29. 998.
1994-11-01 12:00:00 40. 996.
1994-11-01 18:00:00 40. 994.
1994-11-02 00:00:00 990.

top of page Links to source data

Source Source file Format
jtwc_wp bwp351994.txt ATCF
tokyo bst_all.txt:Line=44724:WILDA:9432 JMA text table
cma CH1994BST.txt:Storm=35:Wilda CMA text table
hko tc-besttrack-data.txt:Line=24709:WILDA HKO Text table